Decoded Metar for KMPV (MONTPELIER in VT, USA) (IATA:MPV) | Meteo·Mobile Aviation Weather
aviador You're here:

KMPV Decoded Metar

MONTPELIER in VT, USA
Report Time2019-03-21 14:51:00
UTC Time2019-03-21 15:31:52
Flight Rules vfr VFR
Wind160° at 12 kt
W.Decomp.*RWY 17: 11.9 kt HW 1.3 kt RCW
RWY 23: 7.1 kt HW 9.7 kt LCW
W.Rank160° ranks 8
Current wind is above 160° avg. (7.9)
Visibility9999 m
Phenomena:N/A
Clouds:Overcast 085 Hf
Expected CloudBase > 2,800 ft AGL from Temp-Dew spread
Ceiling8,500 ft
Temp04°C (ISA -9)
Dew Point-3°C (61% RH)
AAT-2.7°C
QNH1019 hPa
Density Alt-66 ft
Elevation1,125 ft
Report Wrong Elevation
Raw Report
KMPV 211451Z AUTO 16012KT 10SM OVC085 04/M03 A3010 RMK AO2 SLP207
T00391033 58018=

Extra information for KMPV:More info

Metar Taf Metar & Taf Last 4 Metars F.Rules Stats Wind Profile Meteogram Temp Stats Airport Information Weather charts Add Link Nearby VenuesMetar ALERT Operation Metar Decoded Social comments

AIRNAV info for KMPV